• Join FlightAware (Why Join?)
  • Login
  • US Flag 
11:15PM EDT


 

Airport Tracker/Info


-or-


 

Live Flight TrackerFlight Track Log ✈ N960DL ✈ 12-Apr-2013 ✈ KMKE - KATL

Flight Track Log - Related Links

Times and Time Zones

All times are in EDT time to prevent confusion due to time zone crossing. See the N960DL flight status page for this flight to view local times or setup timezone preferences in your user account.

Time Position Orientation Groundspeed Altitude Reporting Facility
EDT Latitude Longitude Course Direction KTS MPH feet Rate Location/Type
05:47PM 42.9167 -87.9500 232° Southwest 204 235 3,300  Level KMKE
05:48PM 42.8456 -87.8578 136° Southeast 245 282 6,700 2,580 Climbing Chicago Center
05:49PM 42.7742 -87.8261 162° South 274 315 10,000 2,880 Climbing Chicago Center
05:50PM 42.6947 -87.8147 174° South 285 328 12,700 2,520 Climbing Chicago Center
05:51PM 42.6094 -87.8078 177° South 304 350 15,300 2,160 Climbing Chicago Center
05:52PM 42.5022 -87.8089 180° South 328 377 17,200 1,560 Climbing Chicago Center
05:53PM 42.3933 -87.8072 179° South 387 445 18,600 1,440 Climbing Chicago Center
05:55PM 42.2844 -87.8086 181° South 418 481 20,200 1,980 Climbing Chicago Center
05:56PM 42.1406 -87.8044 179° South 431 496 22,700 1,980 Climbing Chicago Center
05:57PM 42.0175 -87.8019 179° South 440 506 24,300 1,740 Climbing Chicago Center
05:58PM 41.8931 -87.8008 180° South 447 514 26,400 1,740 Climbing Chicago Center
05:59PM 41.7711 -87.7994 180° South 440 506 27,900 1,500 Climbing Chicago Center
06:00PM 41.6475 -87.7975 179° South 442 509 29,600 1,680 Climbing Chicago Center
06:01PM 41.5264 -87.7969 180° South 434 499 31,500 1,320 Climbing Chicago Center
06:02PM 41.3819 -87.7947 179° South 427 491 32,400 720 Climbing Chicago Center
06:03PM 41.2600 -87.7933 180° South 433 498 33,000 240 Climbing Chicago Center
06:04PM 41.1403 -87.7922 180° South 429 494 33,000  Level Chicago Center
06:05PM 41.0211 -87.7897 179° South 428 493 33,000  Level Chicago Center
06:06PM 40.9011 -87.7867 179° South 431 496 33,000  Level Chicago Center
06:07PM 40.7808 -87.7633 172° South 440 506 33,000  Level Chicago Center
06:08PM 40.6461 -87.6739 153° Southeast 458 527 33,000  Level Chicago Center
06:09PM 40.5289 -87.6236 162° South 446 513 33,000  Level Chicago Center
06:10PM 40.4094 -87.5956 170° South 439 505 33,000  Level Chicago Center
06:11PM 40.2892 -87.5692 170° South 438 504 33,000  Level Chicago Center
06:12PM 40.1694 -87.5458 172° South 438 504 33,000  Level Chicago Center
06:13PM 40.1156 -87.5308 168° South 439 505 33,000  Level Indianapolis Center
06:14PM 39.9964 -87.5033 170° South 435 501 33,000  Level Indianapolis Center
06:15PM 39.8531 -87.4714 170° South 432 497 33,000  Level Indianapolis Center
06:16PM 39.7339 -87.4447 170° South 432 497 33,000  Level Indianapolis Center
06:17PM 39.6144 -87.4178 170° South 433 498 33,000  Level Indianapolis Center
06:18PM 39.4947 -87.3919 171° South 434 499 33,000  Level Indianapolis Center
06:19PM 39.3750 -87.3656 170° South 435 501 33,000  Level Indianapolis Center
06:20PM 39.2550 -87.3378 170° South 436 502 33,000  Level Indianapolis Center
06:21PM 39.1350 -87.3108 170° South 436 502 33,000  Level Indianapolis Center
06:22PM 38.9908 -87.2814 171° South 434 499 33,000  Level Indianapolis Center
06:23PM 38.8731 -87.2569 171° South 429 494 33,000  Level Indianapolis Center
06:24PM 38.7550 -87.2311 170° South 427 491 33,000  Level Indianapolis Center
06:25PM 38.6372 -87.2050 170° South 427 491 33,000  Level Indianapolis Center
06:26PM 38.5206 -87.1800 170° South 426 490 33,000  Level Indianapolis Center
06:27PM 38.4044 -87.1556 171° South 423 487 33,000  Level Indianapolis Center
06:28PM 38.2825 -87.1325 172° South 422 486 33,000  Level Indianapolis Center
06:29PM 38.1578 -87.1033 170° South 419 482 33,000  Level Indianapolis Center
06:30PM 38.0442 -87.0797 171° South 415 478 33,000  Level Indianapolis Center
06:31PM 37.9294 -87.0558 171° South 415 478 33,000  Level Indianapolis Center
06:32PM 37.8142 -87.0306 170° South 419 482 33,000  Level Indianapolis Center
06:33PM 37.6958 -87.0061 171° South 426 490 33,000  Level Indianapolis Center
06:34PM 37.5794 -86.9789 169° South 434 499 33,000  Level Memphis Center
06:35PM 37.4664 -86.9550 170° South 429 494 33,000  Level Memphis Center
06:36PM 37.3533 -86.9336 171° South 422 486 33,000  Level Memphis Center
06:37PM 37.2403 -86.9075 170° South 417 480 33,000  Level Memphis Center
06:38PM 37.1250 -86.8836 171° South 412 474 33,000  Level Memphis Center
06:39PM 37.0242 -86.8622 170° South 412 474 33,000  Level Memphis Center
06:40PM 36.9089 -86.8386 171° South 412 474 33,000  Level Memphis Center
06:41PM 36.7978 -86.8150 170° South 412 474 33,000  Level Memphis Center
06:42PM 36.6869 -86.7942 171° South 412 474 33,000  Level Memphis Center
06:43PM 36.5758 -86.7706 170° South 412 474 33,000  Level Memphis Center
06:44PM 36.4519 -86.7425 170° South 412 474 33,000  Level Memphis Center
06:45PM 36.3367 -86.7192 171° South 417 480 33,000  Level Memphis Center
06:46PM 36.2211 -86.6936 170° South 422 486 33,000  Level Memphis Center
06:47PM 36.1097 -86.6575 165° South 417 480 33,000  Level Memphis Center
06:48PM 36.0050 -86.5725 147° Southeast 444 511 33,000  Level Memphis Center
06:49PM 35.9108 -86.4947 146° Southeast 450 518 33,000  Level Memphis Center
06:50PM 35.8061 -86.4125 148° Southeast 455 524 33,000  Level Memphis Center
06:52PM 35.6006 -86.2431 146° Southeast 444 511 33,000  Level Atlanta Center
06:53PM 35.5078 -86.1689 147° Southeast 444 511 33,000  Level Atlanta Center
06:54PM 35.3947 -86.0819 148° Southeast 444 511 33,000 -60 Level Atlanta Center
06:55PM 35.3019 -86.0111 148° Southeast 444 511 32,900 -900 Descending Atlanta Center
06:56PM 35.1989 -85.9297 147° Southeast 444 511 31,200 -1,620 Descending Atlanta Center
06:57PM 35.0856 -85.8408 147° Southeast 443 510 29,700 -1,200 Descending Atlanta Center
06:58PM 34.9883 -85.7653 148° Southeast 451 519 28,900 -840 Descending Atlanta Center
06:59PM 34.8811 -85.6819 147° Southeast 456 525 28,100 -900 Descending Atlanta Center
07:00PM 34.7736 -85.5964 147° Southeast 456 525 27,200 -840 Descending Atlanta Center
07:01PM 34.6661 -85.5111 147° Southeast 456 525 26,500 -1,320 Descending Atlanta Center
07:02PM 34.5567 -85.4286 148° Southeast 456 525 24,600 -2,280 Descending Atlanta Center
07:03PM 34.4531 -85.3411 145° Southeast 456 525 22,000 -2,580 Descending Atlanta Center
07:04PM 34.3456 -85.2439 143° Southeast 446 513 19,500 -2,640 Descending Atlanta Center
07:05PM 34.2483 -85.1597 144° Southeast 436 502 16,700 -2,460 Descending Atlanta Center
07:06PM 34.1550 -85.0831 146° Southeast 428 493 14,600 -1,380 Descending Atlanta Center
07:07PM 34.0661 -84.9967 141° Southeast 411 473 14,000 -300 Descending Atlanta Center
07:08PM 33.9894 -84.8981 133° Southeast 400 460 14,000 -60 Level Atlanta Center
07:09PM 33.9131 -84.7997 133° Southeast 400 460 13,900  Descending Atlanta Center
07:10PM 33.8500 -84.7167 132° Southeast 347 399 14,100 -420 Climbing Atlanta TRACON
07:11PM 33.7833 -84.6333 134° Southeast 343 395 13,200 -1,200 Descending Atlanta TRACON
07:12PM 33.7333 -84.5500 126° Southeast 306 352 11,800 -1,500 Descending Atlanta TRACON
07:13PM 33.7333 -84.4500 90° East 287 330 10,200 -1,740 Descending Atlanta TRACON
07:14PM 33.7333 -84.3833 90° East 270 311 8,500 -2,220 Descending Atlanta TRACON
07:15PM 33.7333 -84.3000 90° East 251 289 6,000 -2,100 Descending Atlanta TRACON
07:16PM 33.7000 -84.2167 116° Southeast 251 289 4,100 -960 Descending Atlanta TRACON
07:17PM 33.6667 -84.2333 203° Southwest 189 217 4,100 -600 Level Atlanta TRACON
07:18PM 33.6500 -84.2833 248° West 174 200 3,000 -1,020 Descending Atlanta TRACON
07:19PM 33.6500 -84.3333 270° West 148 170 2,200 -840 Descending Atlanta TRACON
07:20PM 33.6500 -84.3833 270° West 135 155 1,400 -780 Descending Atlanta TRACON
07:22PM 33.6333 -84.4167 248° West  Level FlightAware Approximate